sensor_id;sensor_type;location;lat;lon;timestamp;temperature;humidity
16974;DHT22;8603;46.944;7.412;2023-04-06T00:01:47;-1.80;99.90
16974;DHT22;8603;46.944;7.412;2023-04-06T00:04:13;-1.90;99.90
16974;DHT22;8603;46.944;7.412;2023-04-06T00:06:38;-1.90;99.90
16974;DHT22;8603;46.944;7.412;2023-04-06T00:09:04;-1.90;99.90
16974;DHT22;8603;46.944;7.412;2023-04-06T00:11:30;-1.90;99.90
16974;DHT22;8603;46.944;7.412;2023-04-06T00:13:55;-2.00;99.90
16974;DHT22;8603;46.944;7.412;2023-04-06T00:16:21;-2.00;99.90
16974;DHT22;8603;46.944;7.412;2023-04-06T00:18:47;-2.00;99.90
16974;DHT22;8603;46.944;7.412;2023-04-06T00:21:13;-2.10;99.90
16974;DHT22;8603;46.944;7.412;2023-04-06T00:23:40;-2.10;99.90
16974;DHT22;8603;46.944;7.412;2023-04-06T00:26:06;-2.10;99.90
16974;DHT22;8603;46.944;7.412;2023-04-06T00:28:31;-2.10;99.90
16974;DHT22;8603;46.944;7.412;2023-04-06T00:30:57;-2.10;99.90
16974;DHT22;8603;46.944;7.412;2023-04-06T00:33:23;-2.10;99.90
16974;DHT22;8603;46.944;7.412;2023-04-06T00:35:49;-2.10;99.90
16974;DHT22;8603;46.944;7.412;2023-04-06T00:38:15;-2.10;99.90
16974;DHT22;8603;46.944;7.412;2023-04-06T00:40:41;-2.20;99.90
16974;DHT22;8603;46.944;7.412;2023-04-06T00:43:07;-2.20;99.90
16974;DHT22;8603;46.944;7.412;2023-04-06T00:45:34;-2.20;99.90
16974;DHT22;8603;46.944;7.412;2023-04-06T00:48:00;-2.20;99.90
16974;DHT22;8603;46.944;7.412;2023-04-06T00:50:27;-2.20;99.90
16974;DHT22;8603;46.944;7.412;2023-04-06T00:52:53;-2.10;99.90
16974;DHT22;8603;46.944;7.412;2023-04-06T00:55:20;-2.10;99.90
16974;DHT22;8603;46.944;7.412;2023-04-06T00:57:45;-2.20;99.90
16974;DHT22;8603;46.944;7.412;2023-04-06T01:00:11;-2.20;99.90
16974;DHT22;8603;46.944;7.412;2023-04-06T01:02:38;-2.20;99.90
16974;DHT22;8603;46.944;7.412;2023-04-06T01:05:04;-2.20;99.90
16974;DHT22;8603;46.944;7.412;2023-04-06T01:07:30;-2.20;99.90
16974;DHT22;8603;46.944;7.412;2023-04-06T01:09:55;-2.30;99.90
16974;DHT22;8603;46.944;7.412;2023-04-06T01:12:21;-2.30;99.90
16974;DHT22;8603;46.944;7.412;2023-04-06T01:14:47;-2.30;99.90
16974;DHT22;8603;46.944;7.412;2023-04-06T01:17:12;-2.30;99.90
16974;DHT22;8603;46.944;7.412;2023-04-06T01:19:38;-2.40;99.90
16974;DHT22;8603;46.944;7.412;2023-04-06T01:22:05;-2.40;99.90
16974;DHT22;8603;46.944;7.412;2023-04-06T01:24:31;-2.50;99.90
16974;DHT22;8603;46.944;7.412;2023-04-06T01:26:57;-2.50;99.90
16974;DHT22;8603;46.944;7.412;2023-04-06T01:29:22;-2.60;99.90
16974;DHT22;8603;46.944;7.412;2023-04-06T01:31:48;-2.60;99.90
16974;DHT22;8603;46.944;7.412;2023-04-06T01:34:13;-2.70;99.90
16974;DHT22;8603;46.944;7.412;2023-04-06T01:36:39;-2.70;99.90
16974;DHT22;8603;46.944;7.412;2023-04-06T01:39:05;-2.70;99.90
16974;DHT22;8603;46.944;7.412;2023-04-06T01:41:31;-2.70;99.90
16974;DHT22;8603;46.944;7.412;2023-04-06T01:43:56;-2.70;99.90
16974;DHT22;8603;46.944;7.412;2023-04-06T01:46:22;-2.70;99.90
16974;DHT22;8603;46.944;7.412;2023-04-06T01:48:47;-2.80;99.90
16974;DHT22;8603;46.944;7.412;2023-04-06T01:51:14;-2.70;99.90
16974;DHT22;8603;46.944;7.412;2023-04-06T01:53:39;-2.80;99.90
16974;DHT22;8603;46.944;7.412;2023-04-06T01:56:05;-2.80;99.90
16974;DHT22;8603;46.944;7.412;2023-04-06T01:58:31;-2.80;99.90
16974;DHT22;8603;46.944;7.412;2023-04-06T02:00:56;-2.80;99.90
16974;DHT22;8603;46.944;7.412;2023-04-06T02:03:22;-2.80;99.90
16974;DHT22;8603;46.944;7.412;2023-04-06T02:05:48;-2.90;99.90
16974;DHT22;8603;46.944;7.412;2023-04-06T02:08:14;-2.90;99.90
16974;DHT22;8603;46.944;7.412;2023-04-06T02:10:40;-2.90;99.90
16974;DHT22;8603;46.944;7.412;2023-04-06T02:13:05;-2.90;99.90
16974;DHT22;8603;46.944;7.412;2023-04-06T02:15:31;-2.90;99.90
16974;DHT22;8603;46.944;7.412;2023-04-06T02:17:57;-2.90;99.90
16974;DHT22;8603;46.944;7.412;2023-04-06T02:20:22;-2.80;99.90
16974;DHT22;8603;46.944;7.412;2023-04-06T02:22:48;-2.80;99.90
16974;DHT22;8603;46.944;7.412;2023-04-06T02:25:14;-2.70;99.90
16974;DHT22;8603;46.944;7.412;2023-04-06T02:27:39;-2.70;99.90
16974;DHT22;8603;46.944;7.412;2023-04-06T02:30:05;-2.60;99.90
16974;DHT22;8603;46.944;7.412;2023-04-06T02:32:31;-2.60;99.90
16974;DHT22;8603;46.944;7.412;2023-04-06T02:34:57;-2.60;99.90
16974;DHT22;8603;46.944;7.412;2023-04-06T02:37:22;-2.70;99.90
16974;DHT22;8603;46.944;7.412;2023-04-06T02:39:49;-2.80;99.90
16974;DHT22;8603;46.944;7.412;2023-04-06T02:42:15;-2.80;99.90
16974;DHT22;8603;46.944;7.412;2023-04-06T02:44:41;-2.80;99.90
16974;DHT22;8603;46.944;7.412;2023-04-06T02:47:07;-2.80;99.90
16974;DHT22;8603;46.944;7.412;2023-04-06T02:49:33;-2.80;99.90
16974;DHT22;8603;46.944;7.412;2023-04-06T02:51:59;-2.80;99.90
16974;DHT22;8603;46.944;7.412;2023-04-06T02:54:24;-2.90;99.90
16974;DHT22;8603;46.944;7.412;2023-04-06T02:56:50;-2.90;99.90
16974;DHT22;8603;46.944;7.412;2023-04-06T02:59:15;-2.90;99.90
16974;DHT22;8603;46.944;7.412;2023-04-06T03:01:41;-3.00;99.90
16974;DHT22;8603;46.944;7.412;2023-04-06T03:04:06;-3.00;99.90
16974;DHT22;8603;46.944;7.412;2023-04-06T03:06:32;-3.10;99.90
16974;DHT22;8603;46.944;7.412;2023-04-06T03:08:58;-3.10;99.90
16974;DHT22;8603;46.944;7.412;2023-04-06T03:11:23;-3.10;99.90
16974;DHT22;8603;46.944;7.412;2023-04-06T03:13:49;-3.10;99.90
16974;DHT22;8603;46.944;7.412;2023-04-06T03:16:14;-3.10;99.90
16974;DHT22;8603;46.944;7.412;2023-04-06T03:18:40;-3.10;99.90
16974;DHT22;8603;46.944;7.412;2023-04-06T03:21:05;-3.20;99.90
16974;DHT22;8603;46.944;7.412;2023-04-06T03:23:31;-3.20;99.90
16974;DHT22;8603;46.944;7.412;2023-04-06T03:25:57;-3.10;99.90
16974;DHT22;8603;46.944;7.412;2023-04-06T03:28:22;-3.10;99.90
16974;DHT22;8603;46.944;7.412;2023-04-06T03:30:49;-3.20;99.90
16974;DHT22;8603;46.944;7.412;2023-04-06T03:33:14;-3.00;99.90
16974;DHT22;8603;46.944;7.412;2023-04-06T03:35:40;-3.20;99.90
16974;DHT22;8603;46.944;7.412;2023-04-06T03:38:06;-3.20;99.90
16974;DHT22;8603;46.944;7.412;2023-04-06T03:40:31;-3.20;99.90
16974;DHT22;8603;46.944;7.412;2023-04-06T03:42:57;-3.20;99.90
16974;DHT22;8603;46.944;7.412;2023-04-06T03:45:23;-3.30;99.90
16974;DHT22;8603;46.944;7.412;2023-04-06T03:47:48;-3.30;99.90
16974;DHT22;8603;46.944;7.412;2023-04-06T03:50:14;-3.30;99.90
16974;DHT22;8603;46.944;7.412;2023-04-06T03:52:40;-3.30;99.90
16974;DHT22;8603;46.944;7.412;2023-04-06T03:55:06;-3.30;99.90
16974;DHT22;8603;46.944;7.412;2023-04-06T03:57:32;-3.30;99.90
16974;DHT22;8603;46.944;7.412;2023-04-06T03:59:57;-3.30;99.90
16974;DHT22;8603;46.944;7.412;2023-04-06T04:02:23;-3.30;99.90
16974;DHT22;8603;46.944;7.412;2023-04-06T04:04:49;-3.40;99.90
16974;DHT22;8603;46.944;7.412;2023-04-06T04:07:15;-3.40;99.90
16974;DHT22;8603;46.944;7.412;2023-04-06T04:09:40;-3.40;99.90
16974;DHT22;8603;46.944;7.412;2023-04-06T04:12:06;-3.40;99.90
16974;DHT22;8603;46.944;7.412;2023-04-06T04:14:32;-3.50;99.90
16974;DHT22;8603;46.944;7.412;2023-04-06T04:16:57;-3.50;99.90
16974;DHT22;8603;46.944;7.412;2023-04-06T04:19:23;-3.30;99.90
16974;DHT22;8603;46.944;7.412;2023-04-06T04:21:49;-3.50;99.90
16974;DHT22;8603;46.944;7.412;2023-04-06T04:24:14;-3.50;99.90
16974;DHT22;8603;46.944;7.412;2023-04-06T04:26:40;-3.50;99.90
16974;DHT22;8603;46.944;7.412;2023-04-06T04:29:06;-3.50;99.90
16974;DHT22;8603;46.944;7.412;2023-04-06T04:31:32;-3.50;99.90
16974;DHT22;8603;46.944;7.412;2023-04-06T04:33:58;-3.50;99.90
16974;DHT22;8603;46.944;7.412;2023-04-06T04:36:24;-3.50;99.90
16974;DHT22;8603;46.944;7.412;2023-04-06T04:38:51;-3.40;99.90
16974;DHT22;8603;46.944;7.412;2023-04-06T04:41:17;-3.40;99.90
16974;DHT22;8603;46.944;7.412;2023-04-06T04:43:42;-3.40;99.90
16974;DHT22;8603;46.944;7.412;2023-04-06T04:46:08;-3.40;99.90
16974;DHT22;8603;46.944;7.412;2023-04-06T04:48:34;-3.50;99.90
16974;DHT22;8603;46.944;7.412;2023-04-06T04:51:00;-3.50;99.90
16974;DHT22;8603;46.944;7.412;2023-04-06T04:53:25;-3.50;99.90
16974;DHT22;8603;46.944;7.412;2023-04-06T04:55:51;-3.50;99.90
16974;DHT22;8603;46.944;7.412;2023-04-06T04:58:17;-3.50;99.90
16974;DHT22;8603;46.944;7.412;2023-04-06T05:00:45;-3.50;99.90
16974;DHT22;8603;46.944;7.412;2023-04-06T05:03:23;-3.40;99.90
16974;DHT22;8603;46.944;7.412;2023-04-06T05:05:49;-3.40;99.90
16974;DHT22;8603;46.944;7.412;2023-04-06T05:08:15;-3.40;99.90
16974;DHT22;8603;46.944;7.412;2023-04-06T05:10:44;-3.30;99.90
16974;DHT22;8603;46.944;7.412;2023-04-06T05:13:10;-3.30;99.90
16974;DHT22;8603;46.944;7.412;2023-04-06T05:15:36;-3.20;99.90
16974;DHT22;8603;46.944;7.412;2023-04-06T05:18:08;-3.10;99.90
16974;DHT22;8603;46.944;7.412;2023-04-06T05:20:35;-3.00;99.90
16974;DHT22;8603;46.944;7.412;2023-04-06T05:23:01;-2.70;99.90
16974;DHT22;8603;46.944;7.412;2023-04-06T05:25:26;-2.20;99.90
16974;DHT22;8603;46.944;7.412;2023-04-06T05:27:52;-1.60;99.90
16974;DHT22;8603;46.944;7.412;2023-04-06T05:30:18;-1.10;99.90
16974;DHT22;8603;46.944;7.412;2023-04-06T05:32:44;-0.90;99.90
16974;DHT22;8603;46.944;7.412;2023-04-06T05:35:10;-0.80;99.90
16974;DHT22;8603;46.944;7.412;2023-04-06T05:37:37;-0.50;99.90
16974;DHT22;8603;46.944;7.412;2023-04-06T05:40:03;0.30;99.90
16974;DHT22;8603;46.944;7.412;2023-04-06T05:42:39;1.00;99.90
16974;DHT22;8603;46.944;7.412;2023-04-06T05:45:07;1.60;99.90
16974;DHT22;8603;46.944;7.412;2023-04-06T05:47:32;2.00;99.90
16974;DHT22;8603;46.944;7.412;2023-04-06T05:49:58;2.30;99.90
16974;DHT22;8603;46.944;7.412;2023-04-06T05:52:24;2.70;99.90
16974;DHT22;8603;46.944;7.412;2023-04-06T05:54:49;3.00;99.90
16974;DHT22;8603;46.944;7.412;2023-04-06T05:57:15;3.20;99.90
16974;DHT22;8603;46.944;7.412;2023-04-06T05:59:42;3.50;99.90
16974;DHT22;8603;46.944;7.412;2023-04-06T06:02:07;3.70;99.90
16974;DHT22;8603;46.944;7.412;2023-04-06T06:04:33;3.90;99.90
16974;DHT22;8603;46.944;7.412;2023-04-06T06:07:00;4.30;99.90
16974;DHT22;8603;46.944;7.412;2023-04-06T06:09:25;4.90;99.90
16974;DHT22;8603;46.944;7.412;2023-04-06T06:11:51;5.50;99.90
16974;DHT22;8603;46.944;7.412;2023-04-06T06:14:17;6.50;99.90
16974;DHT22;8603;46.944;7.412;2023-04-06T06:16:43;7.70;99.90
16974;DHT22;8603;46.944;7.412;2023-04-06T06:19:08;8.90;99.90
16974;DHT22;8603;46.944;7.412;2023-04-06T06:21:34;10.30;99.90
16974;DHT22;8603;46.944;7.412;2023-04-06T06:24:00;11.30;99.40
16974;DHT22;8603;46.944;7.412;2023-04-06T06:26:25;11.60;96.50
16974;DHT22;8603;46.944;7.412;2023-04-06T06:28:51;11.40;95.40
16974;DHT22;8603;46.944;7.412;2023-04-06T06:31:17;11.10;95.00
16974;DHT22;8603;46.944;7.412;2023-04-06T06:33:45;10.70;95.00
16974;DHT22;8603;46.944;7.412;2023-04-06T06:36:11;10.30;94.30
16974;DHT22;8603;46.944;7.412;2023-04-06T06:38:37;10.20;94.70
16974;DHT22;8603;46.944;7.412;2023-04-06T06:41:03;10.00;94.80
16974;DHT22;8603;46.944;7.412;2023-04-06T06:43:29;10.00;95.20
16974;DHT22;8603;46.944;7.412;2023-04-06T06:45:54;10.30;94.90
16974;DHT22;8603;46.944;7.412;2023-04-06T06:48:20;10.50;94.40
16974;DHT22;8603;46.944;7.412;2023-04-06T06:50:47;10.10;93.40
16974;DHT22;8603;46.944;7.412;2023-04-06T06:53:13;10.20;93.50
16974;DHT22;8603;46.944;7.412;2023-04-06T06:55:40;10.80;93.30
16974;DHT22;8603;46.944;7.412;2023-04-06T06:58:05;11.70;93.20
16974;DHT22;8603;46.944;7.412;2023-04-06T07:00:32;12.70;91.30
16974;DHT22;8603;46.944;7.412;2023-04-06T07:02:57;14.20;89.10
16974;DHT22;8603;46.944;7.412;2023-04-06T07:05:23;15.20;85.80
16974;DHT22;8603;46.944;7.412;2023-04-06T07:07:49;16.00;81.00
16974;DHT22;8603;46.944;7.412;2023-04-06T07:10:14;16.00;78.60
16974;DHT22;8603;46.944;7.412;2023-04-06T07:12:40;16.50;77.00
16974;DHT22;8603;46.944;7.412;2023-04-06T07:15:06;17.00;75.10
16974;DHT22;8603;46.944;7.412;2023-04-06T07:17:32;17.80;72.50
16974;DHT22;8603;46.944;7.412;2023-04-06T07:19:57;17.80;72.40
16974;DHT22;8603;46.944;7.412;2023-04-06T07:22:23;17.90;69.20
16974;DHT22;8603;46.944;7.412;2023-04-06T07:24:48;17.60;69.00
16974;DHT22;8603;46.944;7.412;2023-04-06T07:27:14;17.70;69.60
16974;DHT22;8603;46.944;7.412;2023-04-06T07:29:41;17.90;69.50
16974;DHT22;8603;46.944;7.412;2023-04-06T07:32:07;18.00;69.40
16974;DHT22;8603;46.944;7.412;2023-04-06T07:34:33;18.00;68.90
16974;DHT22;8603;46.944;7.412;2023-04-06T07:37:01;19.00;67.50
16974;DHT22;8603;46.944;7.412;2023-04-06T07:39:28;20.20;66.80
16974;DHT22;8603;46.944;7.412;2023-04-06T07:41:54;21.00;65.20
16974;DHT22;8603;46.944;7.412;2023-04-06T07:44:20;20.50;61.50
16974;DHT22;8603;46.944;7.412;2023-04-06T07:46:45;21.10;62.30
16974;DHT22;8603;46.944;7.412;2023-04-06T07:49:11;22.10;60.80
16974;DHT22;8603;46.944;7.412;2023-04-06T07:51:38;22.30;59.60
16974;DHT22;8603;46.944;7.412;2023-04-06T07:54:04;23.00;59.30
16974;DHT22;8603;46.944;7.412;2023-04-06T07:56:30;23.10;59.90
16974;DHT22;8603;46.944;7.412;2023-04-06T07:58:55;23.50;58.10
16974;DHT22;8603;46.944;7.412;2023-04-06T08:01:22;24.00;57.50
16974;DHT22;8603;46.944;7.412;2023-04-06T08:03:48;23.60;57.10
16974;DHT22;8603;46.944;7.412;2023-04-06T08:06:14;21.50;57.10
16974;DHT22;8603;46.944;7.412;2023-04-06T08:08:41;20.60;57.70
16974;DHT22;8603;46.944;7.412;2023-04-06T08:11:06;20.50;59.80
16974;DHT22;8603;46.944;7.412;2023-04-06T08:13:33;20.80;58.50
16974;DHT22;8603;46.944;7.412;2023-04-06T08:15:59;22.10;58.20
16974;DHT22;8603;46.944;7.412;2023-04-06T08:18:25;23.30;57.00
16974;DHT22;8603;46.944;7.412;2023-04-06T08:20:51;24.60;56.30
16974;DHT22;8603;46.944;7.412;2023-04-06T08:23:16;24.90;55.40
16974;DHT22;8603;46.944;7.412;2023-04-06T08:25:43;25.40;55.20
16974;DHT22;8603;46.944;7.412;2023-04-06T08:28:09;26.20;54.20
16974;DHT22;8603;46.944;7.412;2023-04-06T08:30:35;26.80;53.30
16974;DHT22;8603;46.944;7.412;2023-04-06T08:33:01;27.40;52.90
16974;DHT22;8603;46.944;7.412;2023-04-06T08:35:27;27.80;51.30
16974;DHT22;8603;46.944;7.412;2023-04-06T08:37:53;28.10;50.30
16974;DHT22;8603;46.944;7.412;2023-04-06T08:40:19;27.80;49.60
16974;DHT22;8603;46.944;7.412;2023-04-06T08:42:50;27.10;49.50
16974;DHT22;8603;46.944;7.412;2023-04-06T08:45:17;26.50;49.60
16974;DHT22;8603;46.944;7.412;2023-04-06T08:47:52;26.60;49.80
16974;DHT22;8603;46.944;7.412;2023-04-06T08:50:19;26.90;49.50
16974;DHT22;8603;46.944;7.412;2023-04-06T08:52:47;25.30;49.40
16974;DHT22;8603;46.944;7.412;2023-04-06T08:55:14;25.20;50.10
16974;DHT22;8603;46.944;7.412;2023-04-06T08:57:41;25.80;50.70
16974;DHT22;8603;46.944;7.412;2023-04-06T09:00:08;26.20;49.20
16974;DHT22;8603;46.944;7.412;2023-04-06T09:02:39;25.70;49.20
16974;DHT22;8603;46.944;7.412;2023-04-06T09:05:05;24.60;49.00
16974;DHT22;8603;46.944;7.412;2023-04-06T09:07:31;25.30;49.80
16974;DHT22;8603;46.944;7.412;2023-04-06T09:09:56;26.80;49.50
16974;DHT22;8603;46.944;7.412;2023-04-06T09:12:24;27.50;48.20
16974;DHT22;8603;46.944;7.412;2023-04-06T09:14:50;28.20;48.70
16974;DHT22;8603;46.944;7.412;2023-04-06T09:17:23;28.80;48.10
16974;DHT22;8603;46.944;7.412;2023-04-06T09:19:50;29.20;47.30
16974;DHT22;8603;46.944;7.412;2023-04-06T09:22:16;29.30;46.80
16974;DHT22;8603;46.944;7.412;2023-04-06T09:24:52;29.60;46.20
16974;DHT22;8603;46.944;7.412;2023-04-06T09:27:33;29.70;45.60
16974;DHT22;8603;46.944;7.412;2023-04-06T09:32:30;29.50;45.70
16974;DHT22;8603;46.944;7.412;2023-04-06T09:35:06;28.60;45.60
16974;DHT22;8603;46.944;7.412;2023-04-06T09:37:32;27.20;46.20
16974;DHT22;8603;46.944;7.412;2023-04-06T09:40:06;25.10;48.00
16974;DHT22;8603;46.944;7.412;2023-04-06T09:42:33;23.00;49.80
16974;DHT22;8603;46.944;7.412;2023-04-06T09:45:00;21.40;50.60
16974;DHT22;8603;46.944;7.412;2023-04-06T09:47:26;20.00;52.40
16974;DHT22;8603;46.944;7.412;2023-04-06T09:49:59;18.90;52.30
16974;DHT22;8603;46.944;7.412;2023-04-06T09:52:51;17.90;52.80
16974;DHT22;8603;46.944;7.412;2023-04-06T09:55:39;17.30;54.10
16974;DHT22;8603;46.944;7.412;2023-04-06T09:58:07;16.80;54.70
16974;DHT22;8603;46.944;7.412;2023-04-06T10:00:58;16.20;55.50
16974;DHT22;8603;46.944;7.412;2023-04-06T10:03:31;15.70;56.00
16974;DHT22;8603;46.944;7.412;2023-04-06T10:06:03;14.80;57.00
16974;DHT22;8603;46.944;7.412;2023-04-06T10:08:33;14.60;57.70
16974;DHT22;8603;46.944;7.412;2023-04-06T10:10:58;14.40;57.00
16974;DHT22;8603;46.944;7.412;2023-04-06T10:13:24;14.20;57.00
16974;DHT22;8603;46.944;7.412;2023-04-06T10:15:52;14.30;55.90
16974;DHT22;8603;46.944;7.412;2023-04-06T10:18:17;14.40;56.00
16974;DHT22;8603;46.944;7.412;2023-04-06T10:20:54;14.70;56.00
16974;DHT22;8603;46.944;7.412;2023-04-06T10:23:32;14.70;56.80
16974;DHT22;8603;46.944;7.412;2023-04-06T10:26:00;14.70;56.30
16974;DHT22;8603;46.944;7.412;2023-04-06T10:28:33;14.50;54.90
16974;DHT22;8603;46.944;7.412;2023-04-06T10:31:08;14.50;55.10
16974;DHT22;8603;46.944;7.412;2023-04-06T10:33:34;14.50;56.00
16974;DHT22;8603;46.944;7.412;2023-04-06T10:36:13;14.50;56.10
16974;DHT22;8603;46.944;7.412;2023-04-06T10:38:40;14.30;54.30
16974;DHT22;8603;46.944;7.412;2023-04-06T10:41:10;14.30;55.40
16974;DHT22;8603;46.944;7.412;2023-04-06T10:43:37;14.20;55.10
16974;DHT22;8603;46.944;7.412;2023-04-06T10:46:04;14.20;54.70
16974;DHT22;8603;46.944;7.412;2023-04-06T10:48:42;14.50;56.20
16974;DHT22;8603;46.944;7.412;2023-04-06T10:51:16;14.60;54.40
16974;DHT22;8603;46.944;7.412;2023-04-06T10:53:46;14.90;55.30
16974;DHT22;8603;46.944;7.412;2023-04-06T10:56:21;15.10;52.60
16974;DHT22;8603;46.944;7.412;2023-04-06T10:58:48;15.30;51.00
16974;DHT22;8603;46.944;7.412;2023-04-06T11:01:19;15.10;50.60
16974;DHT22;8603;46.944;7.412;2023-04-06T11:03:52;15.20;52.90
16974;DHT22;8603;46.944;7.412;2023-04-06T11:06:22;15.20;53.70
16974;DHT22;8603;46.944;7.412;2023-04-06T11:08:49;15.10;53.20
16974;DHT22;8603;46.944;7.412;2023-04-06T11:11:20;15.20;51.60
16974;DHT22;8603;46.944;7.412;2023-04-06T11:13:57;15.30;50.80
16974;DHT22;8603;46.944;7.412;2023-04-06T11:16:36;15.20;53.30
16974;DHT22;8603;46.944;7.412;2023-04-06T11:19:03;15.30;50.40
16974;DHT22;8603;46.944;7.412;2023-04-06T11:26:48;15.50;49.40
16974;DHT22;8603;46.944;7.412;2023-04-06T11:29:18;15.50;49.30
16974;DHT22;8603;46.944;7.412;2023-04-06T11:31:49;15.60;50.40
16974;DHT22;8603;46.944;7.412;2023-04-06T11:34:20;15.70;48.70
16974;DHT22;8603;46.944;7.412;2023-04-06T11:36:47;15.90;50.50
16974;DHT22;8603;46.944;7.412;2023-04-06T11:39:18;16.10;52.20
16974;DHT22;8603;46.944;7.412;2023-04-06T11:41:51;16.30;50.30
16974;DHT22;8603;46.944;7.412;2023-04-06T11:44:36;16.50;49.50
16974;DHT22;8603;46.944;7.412;2023-04-06T11:47:03;16.60;48.90
16974;DHT22;8603;46.944;7.412;2023-04-06T11:49:31;16.70;48.90
16974;DHT22;8603;46.944;7.412;2023-04-06T11:51:58;16.70;49.10
16974;DHT22;8603;46.944;7.412;2023-04-06T11:54:37;16.60;46.80
16974;DHT22;8603;46.944;7.412;2023-04-06T11:57:04;16.60;46.90
16974;DHT22;8603;46.944;7.412;2023-04-06T11:59:31;16.50;46.60
16974;DHT22;8603;46.944;7.412;2023-04-06T12:02:01;16.40;45.30
16974;DHT22;8603;46.944;7.412;2023-04-06T12:04:30;16.30;45.40
16974;DHT22;8603;46.944;7.412;2023-04-06T12:06:56;16.30;44.90
16974;DHT22;8603;46.944;7.412;2023-04-06T12:09:22;16.30;45.60
16974;DHT22;8603;46.944;7.412;2023-04-06T12:11:48;16.30;46.90
16974;DHT22;8603;46.944;7.412;2023-04-06T12:14:14;16.30;48.60
16974;DHT22;8603;46.944;7.412;2023-04-06T12:16:40;16.30;47.90
16974;DHT22;8603;46.944;7.412;2023-04-06T12:19:06;16.40;45.90
16974;DHT22;8603;46.944;7.412;2023-04-06T12:21:40;16.50;46.50
16974;DHT22;8603;46.944;7.412;2023-04-06T12:24:08;16.50;43.20
16974;DHT22;8603;46.944;7.412;2023-04-06T12:26:34;16.40;42.60
16974;DHT22;8603;46.944;7.412;2023-04-06T12:29:00;16.10;42.70
16974;DHT22;8603;46.944;7.412;2023-04-06T12:31:32;16.00;43.30
16974;DHT22;8603;46.944;7.412;2023-04-06T12:34:00;15.90;42.20
16974;DHT22;8603;46.944;7.412;2023-04-06T12:36:28;15.80;42.50
16974;DHT22;8603;46.944;7.412;2023-04-06T12:38:54;15.90;42.10
16974;DHT22;8603;46.944;7.412;2023-04-06T12:41:21;16.00;41.80
16974;DHT22;8603;46.944;7.412;2023-04-06T12:43:46;16.00;41.90
16974;DHT22;8603;46.944;7.412;2023-04-06T12:46:12;16.20;41.50
16974;DHT22;8603;46.944;7.412;2023-04-06T12:48:38;16.20;42.50
16974;DHT22;8603;46.944;7.412;2023-04-06T12:51:05;16.00;40.90
16974;DHT22;8603;46.944;7.412;2023-04-06T12:53:31;16.00;41.60
16974;DHT22;8603;46.944;7.412;2023-04-06T12:55:58;16.10;43.60
16974;DHT22;8603;46.944;7.412;2023-04-06T12:58:24;16.30;42.50
16974;DHT22;8603;46.944;7.412;2023-04-06T13:00:54;16.20;41.90
16974;DHT22;8603;46.944;7.412;2023-04-06T13:03:21;16.30;42.00
16974;DHT22;8603;46.944;7.412;2023-04-06T13:05:50;16.20;40.80
16974;DHT22;8603;46.944;7.412;2023-04-06T13:08:27;16.40;40.20
16974;DHT22;8603;46.944;7.412;2023-04-06T13:10:54;16.30;40.50
16974;DHT22;8603;46.944;7.412;2023-04-06T13:13:24;16.20;40.00
16974;DHT22;8603;46.944;7.412;2023-04-06T13:15:54;16.20;41.80
16974;DHT22;8603;46.944;7.412;2023-04-06T13:18:21;16.10;40.30
16974;DHT22;8603;46.944;7.412;2023-04-06T13:20:48;16.10;41.20
16974;DHT22;8603;46.944;7.412;2023-04-06T13:23:14;16.10;42.00
16974;DHT22;8603;46.944;7.412;2023-04-06T13:25:46;16.30;42.50
16974;DHT22;8603;46.944;7.412;2023-04-06T13:28:11;16.30;45.30
16974;DHT22;8603;46.944;7.412;2023-04-06T13:30:37;16.30;46.50
16974;DHT22;8603;46.944;7.412;2023-04-06T13:33:03;16.30;44.00
16974;DHT22;8603;46.944;7.412;2023-04-06T13:35:29;16.40;44.30
16974;DHT22;8603;46.944;7.412;2023-04-06T13:37:55;16.30;44.80
16974;DHT22;8603;46.944;7.412;2023-04-06T13:40:21;16.40;44.80
16974;DHT22;8603;46.944;7.412;2023-04-06T13:42:47;16.50;46.40
16974;DHT22;8603;46.944;7.412;2023-04-06T13:45:13;16.40;47.80
16974;DHT22;8603;46.944;7.412;2023-04-06T13:47:38;16.50;48.10
16974;DHT22;8603;46.944;7.412;2023-04-06T13:50:04;16.60;47.20
16974;DHT22;8603;46.944;7.412;2023-04-06T13:52:30;16.70;48.20
16974;DHT22;8603;46.944;7.412;2023-04-06T13:54:59;16.80;48.30
16974;DHT22;8603;46.944;7.412;2023-04-06T13:57:25;16.80;49.00
16974;DHT22;8603;46.944;7.412;2023-04-06T13:59:51;16.80;49.40
16974;DHT22;8603;46.944;7.412;2023-04-06T14:02:16;16.80;49.60
16974;DHT22;8603;46.944;7.412;2023-04-06T14:04:42;16.90;49.40
16974;DHT22;8603;46.944;7.412;2023-04-06T14:07:08;17.00;49.20
16974;DHT22;8603;46.944;7.412;2023-04-06T14:09:34;17.10;48.70
16974;DHT22;8603;46.944;7.412;2023-04-06T14:11:59;17.00;49.80
16974;DHT22;8603;46.944;7.412;2023-04-06T14:14:25;17.20;49.30
16974;DHT22;8603;46.944;7.412;2023-04-06T14:16:51;17.20;50.70
16974;DHT22;8603;46.944;7.412;2023-04-06T14:19:17;17.30;48.10
16974;DHT22;8603;46.944;7.412;2023-04-06T14:21:46;17.30;48.80
16974;DHT22;8603;46.944;7.412;2023-04-06T14:24:27;17.00;49.00
16974;DHT22;8603;46.944;7.412;2023-04-06T14:26:53;17.00;49.60
16974;DHT22;8603;46.944;7.412;2023-04-06T14:29:18;16.90;49.50
16974;DHT22;8603;46.944;7.412;2023-04-06T14:31:46;16.80;48.40
16974;DHT22;8603;46.944;7.412;2023-04-06T14:34:12;16.70;47.70
16974;DHT22;8603;46.944;7.412;2023-04-06T14:36:38;16.60;48.20
16974;DHT22;8603;46.944;7.412;2023-04-06T14:39:04;16.60;48.60
16974;DHT22;8603;46.944;7.412;2023-04-06T14:41:31;16.60;49.50
16974;DHT22;8603;46.944;7.412;2023-04-06T14:43:57;16.60;49.00
16974;DHT22;8603;46.944;7.412;2023-04-06T14:46:22;16.50;50.60
16974;DHT22;8603;46.944;7.412;2023-04-06T14:48:48;16.50;48.70
16974;DHT22;8603;46.944;7.412;2023-04-06T14:51:14;16.60;49.20
16974;DHT22;8603;46.944;7.412;2023-04-06T14:53:39;16.50;50.80
16974;DHT22;8603;46.944;7.412;2023-04-06T14:56:05;16.50;49.90
16974;DHT22;8603;46.944;7.412;2023-04-06T14:58:31;16.30;49.70
16974;DHT22;8603;46.944;7.412;2023-04-06T15:00:58;16.40;50.30
16974;DHT22;8603;46.944;7.412;2023-04-06T15:03:25;16.50;50.90
16974;DHT22;8603;46.944;7.412;2023-04-06T15:05:54;16.70;51.00
16974;DHT22;8603;46.944;7.412;2023-04-06T15:08:21;16.70;50.00
16974;DHT22;8603;46.944;7.412;2023-04-06T15:10:47;16.80;49.60
16974;DHT22;8603;46.944;7.412;2023-04-06T15:13:40;16.90;48.90
16974;DHT22;8603;46.944;7.412;2023-04-06T15:16:07;16.80;50.70
16974;DHT22;8603;46.944;7.412;2023-04-06T15:18:36;16.80;50.60
16974;DHT22;8603;46.944;7.412;2023-04-06T15:21:01;16.50;49.90
16974;DHT22;8603;46.944;7.412;2023-04-06T15:23:27;16.40;50.20
16974;DHT22;8603;46.944;7.412;2023-04-06T15:25:57;16.30;51.80
16974;DHT22;8603;46.944;7.412;2023-04-06T15:28:23;16.20;51.40
16974;DHT22;8603;46.944;7.412;2023-04-06T15:30:58;16.10;51.50
16974;DHT22;8603;46.944;7.412;2023-04-06T15:33:24;16.00;51.30
16974;DHT22;8603;46.944;7.412;2023-04-06T15:35:49;15.70;51.70
16974;DHT22;8603;46.944;7.412;2023-04-06T15:38:16;15.60;52.40
16974;DHT22;8603;46.944;7.412;2023-04-06T15:40:46;15.50;51.50
16974;DHT22;8603;46.944;7.412;2023-04-06T15:43:13;15.40;51.80
16974;DHT22;8603;46.944;7.412;2023-04-06T15:45:39;15.40;51.80
16974;DHT22;8603;46.944;7.412;2023-04-06T15:48:06;15.30;52.80
16974;DHT22;8603;46.944;7.412;2023-04-06T15:50:32;15.30;52.00
16974;DHT22;8603;46.944;7.412;2023-04-06T15:52:58;15.30;53.10
16974;DHT22;8603;46.944;7.412;2023-04-06T15:55:24;15.20;51.50